createdAt,value
2018-04-21T00:02:54.409Z,101598.45
2018-04-21T00:07:55.736Z,101596.42
2018-04-21T00:12:57.770Z,101599.87
2018-04-21T00:17:59.092Z,101599.25
2018-04-21T00:23:00.446Z,101602.10
2018-04-21T00:28:01.782Z,101596.83
2018-04-21T00:33:03.122Z,101597.75
2018-04-21T00:38:07.207Z,101591.56
2018-04-21T00:43:08.530Z,101589.01
2018-04-21T00:48:09.846Z,101591.17
2018-04-21T00:53:11.223Z,101587.54
2018-04-21T00:58:13.298Z,101586.42
2018-04-21T01:03:14.737Z,101591.12
2018-04-21T01:08:16.235Z,101588.77
2018-04-21T01:13:17.866Z,101587.91
2018-04-21T01:18:19.438Z,101577.97
2018-04-21T01:23:20.747Z,101577.62
2018-04-21T01:28:22.052Z,101585.42
2018-04-21T01:33:23.567Z,101586.58
2018-04-21T01:38:24.925Z,101586.00
2018-04-21T01:43:26.275Z,101586.97
2018-04-21T01:48:27.590Z,101590.34
2018-04-21T01:53:28.937Z,101597.42
2018-04-21T01:58:31.008Z,101590.35
2018-04-21T02:03:32.319Z,101588.83
2018-04-21T02:08:33.639Z,101593.45
2018-04-21T02:13:34.958Z,101598.19
2018-04-21T02:18:36.267Z,101599.77
2018-04-21T02:23:37.642Z,101599.72
2018-04-21T02:28:38.967Z,101600.52
2018-04-21T02:33:40.310Z,101601.90
2018-04-21T02:38:41.636Z,101606.64
2018-04-21T02:43:43.007Z,101606.44
2018-04-21T02:48:44.309Z,101611.15
2018-04-21T02:53:45.617Z,101612.72
2018-04-21T02:58:47.027Z,101611.60
2018-04-21T03:03:49.081Z,101616.66
2018-04-21T03:08:50.397Z,101620.97
2018-04-21T03:13:51.713Z,101617.20
2018-04-21T03:18:53.754Z,101619.44
2018-04-21T03:23:55.135Z,101622.85
2018-04-21T03:28:56.471Z,101622.39
2018-04-21T03:33:57.805Z,101628.02
2018-04-21T03:38:59.114Z,101633.58
2018-04-21T03:44:00.563Z,101634.31
2018-04-21T03:49:01.948Z,101641.97
2018-04-21T03:54:03.391Z,101637.54
2018-04-21T03:59:04.781Z,101646.08
2018-04-21T04:04:06.133Z,101640.22
2018-04-21T04:09:07.454Z,101648.28
2018-04-21T04:14:27.560Z,101646.26
2018-04-21T04:25:30.873Z,101661.19
2018-04-21T04:30:32.192Z,101660.98
2018-04-21T04:35:33.626Z,101674.47
2018-04-21T04:40:35.663Z,101676.57
2018-04-21T04:45:36.974Z,101693.70
2018-04-21T04:50:39.301Z,101691.67
2018-04-21T04:55:41.761Z,101695.87
2018-04-21T05:00:43.153Z,101701.37
2018-04-21T05:05:45.592Z,101716.09
2018-04-21T05:10:46.885Z,101717.72
2018-04-21T05:15:48.369Z,101717.70
2018-04-21T05:20:49.723Z,101717.08
2018-04-21T05:25:51.034Z,101729.81
2018-04-21T05:30:53.204Z,101724.09
2018-04-21T05:35:55.006Z,101731.31
2018-04-21T05:40:56.330Z,101728.45
2018-04-21T05:45:58.349Z,101732.45
2018-04-21T05:50:59.646Z,101746.96
2018-04-21T05:56:01.014Z,101743.66
2018-04-21T06:01:03.109Z,101748.02
2018-04-21T06:06:05.145Z,101755.48
2018-04-21T06:11:06.454Z,101757.47
2018-04-21T06:16:07.789Z,101767.03
2018-04-21T06:21:09.090Z,101756.06
2018-04-21T06:26:11.174Z,101758.80
2018-04-21T06:31:12.473Z,101767.97
2018-04-21T06:36:14.531Z,101763.57
2018-04-21T06:41:15.864Z,101765.56
2018-04-21T06:46:17.301Z,101768.20
2018-04-21T06:51:18.804Z,101761.02
2018-04-21T06:56:20.917Z,101765.11
2018-04-21T07:01:22.250Z,101767.88
2018-04-21T07:06:24.294Z,101771.28
2018-04-21T07:11:25.601Z,101778.50
2018-04-21T07:16:26.917Z,101783.83
2018-04-21T07:21:28.242Z,101776.67
2018-04-21T07:26:30.212Z,101779.30
2018-04-21T07:31:31.513Z,101778.54
2018-04-21T07:36:33.561Z,101786.72
2018-04-21T07:41:34.898Z,101783.84
2018-04-21T07:46:36.441Z,101787.29
2018-04-21T07:51:37.819Z,101795.38
2018-04-21T07:56:39.178Z,101784.59
2018-04-21T08:01:40.493Z,101791.99
2018-04-21T08:06:41.817Z,101794.96
2018-04-21T08:11:43.148Z,101803.01
2018-04-21T08:16:45.245Z,101802.77
2018-04-21T08:21:46.603Z,101803.77
2018-04-21T08:26:47.930Z,101811.66
2018-04-21T08:31:49.249Z,101822.67
2018-04-21T08:36:50.565Z,101813.48
2018-04-21T08:41:51.888Z,101817.81
2018-04-21T08:46:53.189Z,101818.17
2018-04-21T08:51:55.270Z,101831.73
2018-04-21T08:56:56.608Z,101829.25
2018-04-21T09:01:57.928Z,101834.97
2018-04-21T09:06:59.261Z,101845.28
2018-04-21T09:12:00.636Z,101831.70
2018-04-21T09:17:02.205Z,101837.92
2018-04-21T09:22:03.574Z,101842.16
2018-04-21T09:27:04.929Z,101841.35
2018-04-21T09:32:07.058Z,101834.17
2018-04-21T09:37:08.395Z,101829.92
2018-04-21T09:42:09.718Z,101824.97
2018-04-21T09:47:11.792Z,101833.95
2018-04-21T09:52:13.124Z,101831.02
2018-04-21T09:57:21.421Z,101832.02
2018-04-21T10:02:22.734Z,101822.95
2018-04-21T10:07:24.083Z,101824.09
2018-04-21T10:12:25.404Z,101817.80
2018-04-21T10:17:26.754Z,101811.72
2018-04-21T10:22:28.110Z,101813.25
2018-04-21T10:27:29.445Z,101800.95
2018-04-21T10:32:30.750Z,101797.52
2018-04-21T10:37:32.404Z,101798.55
2018-04-21T10:42:33.885Z,101798.91
2018-04-21T10:47:35.945Z,101803.02
2018-04-21T10:52:37.302Z,101787.97
2018-04-21T10:57:38.634Z,101785.37
2018-04-21T11:02:39.983Z,101779.80
2018-04-21T11:07:41.302Z,101780.91
2018-04-21T11:12:42.640Z,101777.84
2018-04-21T11:17:44.726Z,101779.16
2018-04-21T11:22:46.045Z,101788.32
2018-04-21T11:27:47.367Z,101753.94
2018-04-21T11:32:48.808Z,101766.52
2018-04-21T11:37:50.893Z,101760.33
2018-04-21T11:42:52.259Z,101771.12
2018-04-21T11:47:53.589Z,101764.27
2018-04-21T11:52:55.666Z,101768.61
2018-04-21T11:57:56.989Z,101749.33
2018-04-21T12:02:59.042Z,101746.73
2018-04-21T12:08:00.378Z,101742.80
2018-04-21T12:13:01.766Z,101745.41
2018-04-21T12:18:03.077Z,101743.55
2018-04-21T12:23:05.146Z,101739.98
2018-04-21T12:28:06.453Z,101747.56
2018-04-21T12:33:07.778Z,101735.80
2018-04-21T12:38:09.120Z,101727.34
2018-04-21T12:43:10.439Z,101728.70
2018-04-21T12:48:12.512Z,101729.81
2018-04-21T12:53:13.841Z,101726.99
2018-04-21T12:58:15.153Z,101719.46
2018-04-21T13:03:16.478Z,101716.48
2018-04-21T13:08:17.822Z,101710.05
2018-04-21T13:13:19.197Z,101714.18
2018-04-21T13:18:20.552Z,101707.25
2018-04-21T13:23:21.844Z,101704.37
2018-04-21T13:28:23.159Z,101700.31
2018-04-21T13:33:24.518Z,101702.32
2018-04-21T13:38:25.821Z,101691.79
2018-04-21T13:43:27.870Z,101677.63
2018-04-21T13:48:29.202Z,101674.27
2018-04-21T13:53:30.538Z,101664.37
2018-04-21T13:58:31.858Z,101660.89
2018-04-21T14:03:33.198Z,101654.47
2018-04-21T14:08:35.270Z,101655.73
2018-04-21T14:13:36.605Z,101649.13
2018-04-21T14:18:37.908Z,101634.74
2018-04-21T14:23:39.215Z,101640.42
2018-04-21T14:28:40.571Z,101640.64
2018-04-21T14:33:41.833Z,101634.82
2018-04-21T14:38:43.158Z,101627.66
2018-04-21T14:43:44.488Z,101630.80
2018-04-21T14:48:45.802Z,101621.30
2018-04-21T14:53:47.154Z,101620.78
2018-04-21T14:58:48.450Z,101612.67
2018-04-21T15:03:49.758Z,101622.33
2018-04-21T15:08:51.061Z,101614.07
2018-04-21T15:13:53.097Z,101604.23
2018-04-21T15:18:54.407Z,101600.09
2018-04-21T15:23:55.733Z,101606.08
2018-04-21T15:28:57.033Z,101596.05
2018-04-21T15:33:58.498Z,101591.97
2018-04-21T15:38:59.821Z,101592.38
2018-04-21T15:44:01.905Z,101592.84
2018-04-21T15:49:03.321Z,101587.41
2018-04-21T15:54:05.385Z,101588.53
2018-04-21T15:59:06.692Z,101584.59
2018-04-21T16:04:08.118Z,101581.88
2018-04-21T16:09:10.357Z,101580.04
2018-04-21T16:14:11.742Z,101573.98
2018-04-21T16:19:13.070Z,101572.63
2018-04-21T16:24:14.554Z,101569.20
2018-04-21T16:29:15.886Z,101559.13
2018-04-21T16:34:17.942Z,101559.10
2018-04-21T16:39:19.291Z,101556.44
2018-04-21T16:44:20.601Z,101554.09
2018-04-21T16:49:21.891Z,101548.98
2018-04-21T16:54:23.232Z,101548.46
2018-04-21T16:59:24.547Z,101550.25
2018-04-21T17:04:25.898Z,101542.58
2018-04-21T17:09:27.207Z,101547.58
2018-04-21T17:14:28.547Z,101544.58
2018-04-21T17:19:29.876Z,101537.62
2018-04-21T17:24:31.194Z,101536.48
2018-04-21T17:29:32.507Z,101543.41
2018-04-21T17:34:34.544Z,101536.48
2018-04-21T17:39:35.880Z,101536.39
2018-04-21T17:44:37.201Z,101533.89
2018-04-21T17:49:38.497Z,101538.25
2018-04-21T17:54:39.825Z,101537.34
2018-04-21T17:59:41.133Z,101528.66
2018-04-21T18:04:42.433Z,101545.50
2018-04-21T18:09:43.742Z,101542.23
2018-04-21T18:14:45.049Z,101545.92
2018-04-21T18:19:46.345Z,101550.50
2018-04-21T18:24:47.670Z,101560.30
2018-04-21T18:29:50.102Z,101563.27
2018-04-21T18:34:51.487Z,101562.13
2018-04-21T18:39:52.869Z,101562.11
2018-04-21T18:44:54.941Z,101562.64
2018-04-21T18:49:56.686Z,101560.28
2018-04-21T18:54:58.037Z,101559.73
2018-04-21T18:59:59.712Z,101567.69
2018-04-21T19:05:01.190Z,101556.24
2018-04-21T19:10:02.566Z,101562.81
2018-04-21T19:15:03.884Z,101563.92
2018-04-21T19:20:05.195Z,101565.81
2018-04-21T19:25:06.511Z,101560.95
2018-04-21T19:30:08.547Z,101563.41
2018-04-21T19:35:09.853Z,101556.61
2018-04-21T19:40:11.149Z,101556.28
2018-04-21T19:45:12.482Z,101550.44
2018-04-21T19:50:14.535Z,101546.44
2018-04-21T19:55:15.870Z,101547.35
2018-04-21T20:00:17.925Z,101546.51
2018-04-21T20:05:19.230Z,101545.80
2018-04-21T20:10:20.566Z,101548.37
2018-04-21T20:15:22.644Z,101543.62
2018-04-21T20:20:23.967Z,101537.44
2018-04-21T20:25:26.020Z,101540.11
2018-04-21T20:30:27.370Z,101529.94
2018-04-21T20:35:28.698Z,101521.94
2018-04-21T20:40:30.189Z,101526.38
2018-04-21T20:45:31.489Z,101517.69
2018-04-21T20:50:32.830Z,101517.23
2018-04-21T20:55:34.141Z,101526.68
2018-04-21T21:00:35.454Z,101521.55
2018-04-21T21:05:36.788Z,101521.75
2018-04-21T21:10:38.837Z,101527.05
2018-04-21T21:15:40.160Z,101528.16
2018-04-21T21:20:41.457Z,101534.44
2018-04-21T21:25:42.792Z,101542.08
2018-04-21T21:30:44.089Z,101538.00
2018-04-21T21:35:45.397Z,101536.03
2018-04-21T21:40:46.716Z,101537.47
2018-04-21T21:45:48.023Z,101535.91
2018-04-21T21:50:50.062Z,101529.18
2018-04-21T21:55:51.393Z,101523.72
2018-04-21T22:00:52.733Z,101527.64
2018-04-21T22:05:54.065Z,101534.04
2018-04-21T22:10:55.372Z,101542.27
2018-04-21T22:15:57.470Z,101540.00
2018-04-21T22:20:58.813Z,101535.80
2018-04-21T22:26:00.110Z,101536.77
2018-04-21T22:31:01.453Z,101533.03
2018-04-21T22:36:02.840Z,101532.09
2018-04-21T22:41:04.902Z,101531.36
2018-04-21T22:46:06.203Z,101530.50
2018-04-21T22:51:07.518Z,101515.67
2018-04-21T22:56:08.829Z,101518.81
2018-04-21T23:01:10.157Z,101517.94
2018-04-21T23:06:11.510Z,101506.23
2018-04-21T23:11:12.810Z,101499.44
2018-04-21T23:16:14.168Z,101505.12
2018-04-21T23:21:16.222Z,101502.90
2018-04-21T23:26:17.555Z,101502.22
2018-04-21T23:31:18.877Z,101489.11
2018-04-21T23:36:20.191Z,101484.95
2018-04-21T23:41:21.506Z,101472.31
2018-04-21T23:46:22.802Z,101476.39
2018-04-21T23:51:24.105Z,101480.84
2018-04-21T23:56:25.406Z,101475.76
